Terminal Aerodrome Forecast
Issued by NWS

Home | Current Version | Previous Version | Text Only | Print | Product List | Glossary On
Versions: 1 2 3 4 5 6 7 8 9 10 11 12 13 14
476
FTUS43 KICT 111735
TAFCNU
TAF
KCNU 111735Z 1118/1218 34012KT P6SM BKN250
     FM112000 31018G25KT P6SM BKN250
     FM120600 35012KT P6SM SKC
     FM121200 34006KT P6SM SKC=

USA.gov is the U.S. government's official web portal to all federal, state and local government web resources and services.